createdAt,value
2022-12-18T00:02:28.211Z,0.51
2022-12-18T00:05:29.854Z,0.61
2022-12-18T00:08:31.605Z,0.61
2022-12-18T00:11:33.297Z,0.66
2022-12-18T00:14:34.963Z,0.66
2022-12-18T00:17:36.565Z,0.67
2022-12-18T00:20:40.176Z,0.72
2022-12-18T00:23:43.838Z,0.79
2022-12-18T00:26:45.609Z,0.83
2022-12-18T00:29:48.719Z,0.75
2022-12-18T00:32:50.306Z,0.83
2022-12-18T00:35:51.896Z,0.81
2022-12-18T00:38:55.193Z,0.85
2022-12-18T00:42:15.567Z,0.88
2022-12-18T00:45:17.225Z,0.83
2022-12-18T00:48:19.000Z,0.83
2022-12-18T00:51:20.635Z,0.82
2022-12-18T00:54:22.235Z,0.78
2022-12-18T00:57:25.564Z,0.82
2022-12-18T01:00:27.229Z,0.86
2022-12-18T01:03:28.920Z,0.81
2022-12-18T01:06:30.762Z,0.83
2022-12-18T01:09:32.503Z,0.79
2022-12-18T01:12:34.324Z,0.91
2022-12-18T01:15:35.946Z,0.88
2022-12-18T01:18:37.572Z,0.85
2022-12-18T01:21:39.182Z,0.85
2022-12-18T01:24:40.842Z,0.93
2022-12-18T01:27:42.505Z,0.97
2022-12-18T01:30:44.325Z,0.99
2022-12-18T01:33:46.473Z,0.98
2022-12-18T01:36:48.133Z,0.94
2022-12-18T01:39:50.901Z,0.93
2022-12-18T01:42:53.155Z,0.94
2022-12-18T01:45:55.262Z,1.01
2022-12-18T01:49:02.281Z,1.03
2022-12-18T01:52:04.794Z,1.02
2022-12-18T01:55:07.803Z,1.04
2022-12-18T01:58:09.611Z,1.01
2022-12-18T02:01:11.391Z,0.98
2022-12-18T02:04:31.238Z,0.99
2022-12-18T02:07:45.189Z,0.93
2022-12-18T02:11:13.248Z,1.05
2022-12-18T02:14:36.801Z,1.10
2022-12-18T02:17:44.420Z,1.02
2022-12-18T02:21:04.006Z,1.01
2022-12-18T02:24:34.683Z,0.99
2022-12-18T02:27:40.080Z,0.85
2022-12-18T02:30:43.924Z,0.84
2022-12-18T02:33:47.071Z,0.90
2022-12-18T02:36:50.223Z,0.87
2022-12-18T02:39:54.051Z,0.88
2022-12-18T02:42:55.923Z,0.62
2022-12-18T02:46:00.579Z,0.71
2022-12-18T02:49:19.883Z,0.63
2022-12-18T02:52:39.506Z,0.62
2022-12-18T02:55:55.257Z,0.66
2022-12-18T02:59:01.112Z,0.66
2022-12-18T03:02:20.022Z,0.64
2022-12-18T03:05:44.538Z,0.64
2022-12-18T03:08:50.734Z,0.57
2022-12-18T03:12:23.842Z,0.41
2022-12-18T03:15:31.590Z,0.31
2022-12-18T03:18:47.080Z,0.25
2022-12-18T03:21:52.700Z,0.27
2022-12-18T03:24:57.483Z,0.17
2022-12-18T03:28:02.081Z,0.07
2022-12-18T03:31:07.606Z,0.14
2022-12-18T03:34:20.753Z,0.10
2022-12-18T03:37:22.510Z,-0.07
2022-12-18T03:40:32.232Z,-0.19
2022-12-18T03:43:54.077Z,-0.31
2022-12-18T03:47:16.525Z,-0.38
2022-12-18T03:50:28.159Z,-0.48
2022-12-18T03:53:50.193Z,-0.54
2022-12-18T03:56:59.133Z,-0.57
2022-12-18T04:00:09.218Z,-0.65
2022-12-18T04:03:12.086Z,-0.71
2022-12-18T04:06:15.924Z,-0.73
2022-12-18T04:09:17.872Z,-0.74
2022-12-18T04:12:19.544Z,-0.77
2022-12-18T04:15:21.254Z,-0.78
2022-12-18T04:18:22.856Z,-0.84
2022-12-18T04:21:24.513Z,-0.89
2022-12-18T04:24:26.465Z,-0.93
2022-12-18T04:27:28.099Z,-0.98
2022-12-18T04:30:30.140Z,-0.97
2022-12-18T04:33:32.001Z,-1.00
2022-12-18T04:36:33.833Z,-0.98
2022-12-18T04:39:36.684Z,-1.09
2022-12-18T04:42:39.736Z,-1.13
2022-12-18T04:45:41.502Z,-1.26
2022-12-18T04:48:43.150Z,-1.24
2022-12-18T04:51:44.837Z,-1.19
2022-12-18T04:54:46.549Z,-1.24
2022-12-18T04:57:48.157Z,-1.27
2022-12-18T05:00:49.775Z,-1.31
2022-12-18T05:03:52.671Z,-1.39
2022-12-18T05:06:54.446Z,-1.43
2022-12-18T05:09:56.109Z,-1.46
2022-12-18T05:13:01.324Z,-1.41
2022-12-18T05:16:03.691Z,-1.40
2022-12-18T05:19:05.546Z,-1.41
2022-12-18T05:22:07.199Z,-1.48
2022-12-18T05:25:09.466Z,-1.40
2022-12-18T05:28:11.301Z,-1.41
2022-12-18T05:31:13.402Z,-1.38
2022-12-18T05:34:15.170Z,-1.37
2022-12-18T05:37:17.899Z,-1.28
2022-12-18T05:40:19.562Z,-1.23
2022-12-18T05:43:25.237Z,-1.27
2022-12-18T05:46:27.637Z,-1.31
2022-12-18T05:49:29.284Z,-1.18
2022-12-18T05:52:31.562Z,-1.19
2022-12-18T05:55:37.294Z,-1.19
2022-12-18T05:58:39.846Z,-1.30
2022-12-18T06:01:41.825Z,-1.23
2022-12-18T06:04:43.682Z,-1.33
2022-12-18T06:07:45.426Z,-1.33
2022-12-18T06:10:53.325Z,-1.44
2022-12-18T06:13:59.181Z,-1.46
2022-12-18T06:17:01.264Z,-1.55
2022-12-18T06:20:03.920Z,-1.59
2022-12-18T06:23:05.498Z,-1.71
2022-12-18T06:26:09.488Z,-1.72
2022-12-18T06:29:11.142Z,-1.75
2022-12-18T06:32:12.787Z,-1.69
2022-12-18T06:35:14.422Z,-1.75
2022-12-18T06:38:17.575Z,-1.80
2022-12-18T06:41:21.688Z,-1.77
2022-12-18T06:44:23.495Z,-1.74
2022-12-18T06:47:25.202Z,-1.63
2022-12-18T06:50:27.014Z,-1.56
2022-12-18T06:53:29.349Z,-1.49
2022-12-18T06:56:31.643Z,-1.46
2022-12-18T06:59:33.343Z,-1.45
2022-12-18T07:02:35.467Z,-1.49
2022-12-18T07:05:41.853Z,-1.44
2022-12-18T07:08:43.659Z,-1.34
2022-12-18T07:11:45.377Z,-1.31
2022-12-18T07:14:46.970Z,-1.31
2022-12-18T07:17:48.605Z,-1.33
2022-12-18T07:20:50.241Z,-1.20
2022-12-18T07:23:51.995Z,-1.02
2022-12-18T07:26:53.717Z,-0.81
2022-12-18T07:29:55.990Z,-0.56
2022-12-18T07:32:57.689Z,-0.33
2022-12-18T07:36:04.593Z,-0.01
2022-12-18T07:39:06.310Z,0.04
2022-12-18T07:42:26.463Z,0.22
2022-12-18T07:45:29.193Z,0.47
2022-12-18T07:48:31.590Z,0.57
2022-12-18T07:51:33.623Z,0.71
2022-12-18T07:54:35.309Z,1.08
2022-12-18T07:57:56.423Z,1.51
2022-12-18T08:01:05.870Z,1.97
2022-12-18T08:04:08.021Z,1.94
2022-12-18T08:07:09.681Z,1.99
2022-12-18T08:10:11.303Z,2.23
2022-12-18T08:13:12.924Z,2.88
2022-12-18T08:16:14.569Z,3.43
2022-12-18T08:19:16.255Z,4.16
2022-12-18T08:22:18.033Z,4.34
2022-12-18T08:25:19.669Z,4.58
2022-12-18T08:28:21.478Z,4.19
2022-12-18T08:31:23.791Z,3.75
2022-12-18T08:34:26.247Z,3.27
2022-12-18T08:37:27.887Z,3.19
2022-12-18T08:40:29.625Z,3.48
2022-12-18T08:43:49.554Z,3.33
2022-12-18T08:46:51.132Z,3.49
2022-12-18T08:49:52.773Z,3.80
2022-12-18T08:52:54.475Z,3.41
2022-12-18T08:55:57.769Z,3.37
2022-12-18T08:58:59.571Z,3.35
2022-12-18T09:02:02.119Z,3.24
2022-12-18T09:05:04.157Z,3.22
2022-12-18T09:08:05.837Z,3.79
2022-12-18T09:11:14.445Z,4.51
2022-12-18T09:14:16.138Z,4.56
2022-12-18T09:17:17.878Z,4.35
2022-12-18T09:20:20.149Z,4.31
2022-12-18T09:23:22.385Z,4.48
2022-12-18T09:26:25.833Z,5.09
2022-12-18T09:29:27.493Z,5.73
2022-12-18T09:32:29.855Z,6.13
2022-12-18T09:35:31.706Z,6.70
2022-12-18T09:38:34.749Z,7.14
2022-12-18T09:41:54.274Z,7.64
2022-12-18T09:44:56.020Z,7.50
2022-12-18T09:47:58.612Z,7.89
2022-12-18T09:51:06.832Z,8.09
2022-12-18T09:54:15.218Z,7.73
2022-12-18T09:57:21.507Z,7.53
2022-12-18T10:00:25.201Z,7.78
2022-12-18T10:03:27.566Z,8.09
2022-12-18T10:06:57.258Z,8.25
2022-12-18T10:10:13.789Z,8.20
2022-12-18T10:13:32.063Z,8.93
2022-12-18T10:17:12.324Z,9.21
2022-12-18T10:20:25.058Z,10.33
2022-12-18T10:23:34.636Z,10.69
2022-12-18T10:26:36.431Z,11.43
2022-12-18T10:29:38.872Z,12.10
2022-12-18T10:32:40.711Z,12.08
2022-12-18T10:35:43.367Z,12.12
2022-12-18T10:38:45.162Z,12.45
2022-12-18T10:41:47.246Z,12.49
2022-12-18T10:45:02.637Z,12.40
2022-12-18T10:48:04.787Z,12.76
2022-12-18T10:51:12.095Z,12.33
2022-12-18T10:54:24.765Z,12.60
2022-12-18T10:57:35.026Z,13.00
2022-12-18T11:00:37.033Z,12.15
2022-12-18T11:03:41.994Z,11.83
2022-12-18T11:07:06.842Z,12.28
2022-12-18T11:10:18.673Z,12.41
2022-12-18T11:13:23.163Z,12.24
2022-12-18T11:16:24.988Z,12.32
2022-12-18T11:19:36.153Z,11.97
2022-12-18T11:22:39.288Z,11.48
2022-12-18T11:25:52.750Z,11.79
2022-12-18T11:29:09.780Z,11.30
2022-12-18T11:32:28.226Z,10.79
2022-12-18T11:35:46.722Z,11.08
2022-12-18T11:38:50.299Z,11.88
2022-12-18T11:42:12.698Z,12.25
2022-12-18T11:45:14.480Z,12.48
2022-12-18T11:48:27.841Z,13.02
2022-12-18T11:51:38.314Z,12.97
2022-12-18T11:54:39.950Z,13.85
2022-12-18T11:58:15.651Z,13.73
2022-12-18T12:01:54.961Z,13.35
2022-12-18T12:05:04.994Z,14.28
2022-12-18T12:08:12.530Z,13.96
2022-12-18T12:11:49.735Z,14.27
2022-12-18T12:15:19.166Z,14.68
2022-12-18T12:18:26.775Z,14.42
2022-12-18T12:21:42.104Z,14.79
2022-12-18T12:25:11.254Z,14.28
2022-12-18T12:28:31.305Z,14.84
2022-12-18T12:32:03.825Z,14.61
2022-12-18T12:35:44.137Z,15.13
2022-12-18T12:38:56.095Z,14.57
2022-12-18T12:42:16.807Z,14.70
2022-12-18T12:45:29.378Z,13.74
2022-12-18T12:48:52.345Z,14.49
2022-12-18T12:52:01.272Z,14.42
2022-12-18T12:55:10.313Z,13.27
2022-12-18T12:58:26.009Z,12.82
2022-12-18T13:02:00.702Z,13.08
2022-12-18T13:05:19.918Z,12.62
2022-12-18T13:08:30.071Z,12.98
2022-12-18T13:12:00.046Z,13.29
2022-12-18T13:15:23.448Z,13.17
2022-12-18T13:18:26.344Z,12.14
2022-12-18T13:21:31.947Z,10.92
2022-12-18T13:24:33.929Z,9.58
2022-12-18T13:27:41.343Z,8.46
2022-12-18T13:30:44.823Z,8.01
2022-12-18T13:34:23.835Z,7.49
2022-12-18T13:37:39.510Z,6.89
2022-12-18T13:40:41.613Z,6.78
2022-12-18T13:44:13.706Z,7.01
2022-12-18T13:47:38.407Z,7.38
2022-12-18T13:50:40.554Z,7.47
2022-12-18T13:53:50.742Z,7.27
2022-12-18T13:56:52.981Z,6.58
2022-12-18T13:59:54.713Z,6.40
2022-12-18T14:02:58.104Z,6.34
2022-12-18T14:06:13.667Z,6.15
2022-12-18T14:09:26.287Z,5.92
2022-12-18T14:12:51.630Z,5.60
2022-12-18T14:15:53.590Z,5.21
2022-12-18T14:19:08.372Z,4.90
2022-12-18T14:22:28.729Z,4.67
2022-12-18T14:25:31.787Z,4.47
2022-12-18T14:28:34.261Z,4.21
2022-12-18T14:31:35.932Z,4.16
2022-12-18T14:34:40.723Z,4.07
2022-12-18T14:37:42.382Z,3.94
2022-12-18T14:40:44.859Z,3.76
2022-12-18T14:43:49.246Z,3.64
2022-12-18T14:46:51.866Z,3.55
2022-12-18T14:49:53.472Z,3.41
2022-12-18T14:52:55.066Z,3.26
2022-12-18T14:55:56.916Z,3.17
2022-12-18T14:59:23.715Z,2.90
2022-12-18T15:02:28.801Z,2.59
2022-12-18T15:05:32.593Z,2.43
2022-12-18T15:08:37.904Z,2.37
2022-12-18T15:11:42.989Z,2.29
2022-12-18T15:14:45.052Z,2.17
2022-12-18T15:17:46.988Z,2.12
2022-12-18T15:20:54.243Z,1.89
2022-12-18T15:23:56.513Z,1.80
2022-12-18T15:26:59.099Z,1.61
2022-12-18T15:30:09.779Z,1.56
2022-12-18T15:33:25.767Z,1.50
2022-12-18T15:36:30.930Z,1.35
2022-12-18T15:39:32.785Z,1.37
2022-12-18T15:42:53.622Z,1.35
2022-12-18T15:45:55.502Z,1.32
2022-12-18T15:49:02.189Z,1.25
2022-12-18T15:52:05.783Z,1.17
2022-12-18T15:55:36.586Z,1.07
2022-12-18T15:58:39.089Z,0.90
2022-12-18T16:01:43.069Z,0.81
2022-12-18T16:04:46.816Z,0.79
2022-12-18T16:07:48.737Z,0.78
2022-12-18T16:10:50.314Z,0.80
2022-12-18T16:13:53.255Z,0.79
2022-12-18T16:16:58.591Z,0.74
2022-12-18T16:20:00.678Z,0.59
2022-12-18T16:23:02.572Z,0.45
2022-12-18T16:26:05.634Z,0.47
2022-12-18T16:29:07.537Z,0.45
2022-12-18T16:32:16.643Z,0.38
2022-12-18T16:35:18.645Z,0.36
2022-12-18T16:38:20.914Z,0.33
2022-12-18T16:41:34.728Z,0.32
2022-12-18T16:44:36.777Z,0.30
2022-12-18T16:47:39.865Z,0.21
2022-12-18T16:50:42.113Z,0.20
2022-12-18T16:53:44.509Z,0.18
2022-12-18T16:56:49.839Z,0.14
2022-12-18T16:59:51.936Z,0.11
2022-12-18T17:02:54.753Z,0.09
2022-12-18T17:06:03.185Z,0.12
2022-12-18T17:09:09.015Z,0.14
2022-12-18T17:12:10.942Z,0.15
2022-12-18T17:15:12.809Z,0.04
2022-12-18T17:18:15.096Z,0.04
2022-12-18T17:21:17.677Z,0.08
2022-12-18T17:24:20.657Z,0.10
2022-12-18T17:27:22.572Z,0.07
2022-12-18T17:30:24.430Z,0.01
2022-12-18T17:33:26.413Z,0.07
2022-12-18T17:36:29.022Z,0.05
2022-12-18T17:39:31.386Z,-0.07
2022-12-18T17:42:34.046Z,-0.05
2022-12-18T17:45:39.874Z,-0.08
2022-12-18T17:48:41.866Z,-0.09
2022-12-18T17:51:43.838Z,-0.10
2022-12-18T17:54:48.056Z,-0.06
2022-12-18T17:57:50.766Z,-0.04
2022-12-18T18:00:52.792Z,-0.10
2022-12-18T18:03:57.844Z,-0.17
2022-12-18T18:07:00.030Z,-0.36
2022-12-18T18:10:02.014Z,-0.38
2022-12-18T18:13:23.373Z,-0.42
2022-12-18T18:16:25.292Z,-0.47
2022-12-18T18:19:27.213Z,-0.54
2022-12-18T18:22:29.132Z,-0.49
2022-12-18T18:25:31.222Z,-0.45
2022-12-18T18:28:33.247Z,-0.38
2022-12-18T18:31:35.316Z,-0.31
2022-12-18T18:34:43.414Z,-0.28
2022-12-18T18:37:48.203Z,-0.33
2022-12-18T18:41:04.279Z,-0.40
2022-12-18T18:44:06.859Z,-0.41
2022-12-18T18:47:09.591Z,-0.37
2022-12-18T18:50:12.934Z,-0.37
2022-12-18T18:53:14.550Z,-0.36
2022-12-18T18:57:03.925Z,-0.30
2022-12-18T18:59:46.488Z,-0.32
2022-12-18T19:02:48.386Z,-0.40
2022-12-18T19:06:00.003Z,-0.43
2022-12-18T19:09:04.358Z,-0.37
2022-12-18T19:12:25.312Z,-0.57
2022-12-18T19:15:27.999Z,-0.61
2022-12-18T19:18:30.063Z,-0.71
2022-12-18T19:21:34.109Z,-0.64
2022-12-18T19:24:37.038Z,-0.74
2022-12-18T19:27:40.076Z,-0.87
2022-12-18T19:30:41.874Z,-0.97
2022-12-18T19:33:46.172Z,-1.12
2022-12-18T19:36:49.057Z,-1.26
2022-12-18T19:39:53.161Z,-1.21
2022-12-18T19:42:55.058Z,-1.20
2022-12-18T19:45:57.047Z,-1.08
2022-12-18T19:49:00.263Z,-1.19
2022-12-18T19:52:02.783Z,-1.14
2022-12-18T19:55:05.140Z,-1.13
2022-12-18T19:58:07.021Z,-1.32
2022-12-18T20:01:09.020Z,-1.48
2022-12-18T20:04:12.581Z,-1.45
2022-12-18T20:07:14.607Z,-1.33
2022-12-18T20:10:20.001Z,-1.30
2022-12-18T20:13:22.940Z,-1.24
2022-12-18T20:16:25.190Z,-1.23
2022-12-18T20:19:27.393Z,-1.16
2022-12-18T20:22:29.310Z,-1.08
2022-12-18T20:25:31.232Z,-1.04
2022-12-18T20:28:33.252Z,-1.00
2022-12-18T20:31:35.235Z,-1.06
2022-12-18T20:34:37.117Z,-1.24
2022-12-18T20:37:39.533Z,-1.23
2022-12-18T20:40:44.651Z,-1.28
2022-12-18T20:43:46.773Z,-1.31
2022-12-18T20:46:50.145Z,-1.36
2022-12-18T20:49:51.887Z,-1.28
2022-12-18T20:52:53.625Z,-1.19
2022-12-18T20:55:55.305Z,-1.15
2022-12-18T20:58:58.195Z,-1.07
2022-12-18T21:02:00.154Z,-1.02
2022-12-18T21:05:02.001Z,-0.92
2022-12-18T21:08:03.756Z,-0.85
2022-12-18T21:11:51.302Z,-0.88
2022-12-18T21:14:52.952Z,-0.75
2022-12-18T21:17:54.583Z,-0.70
2022-12-18T21:20:56.458Z,-0.82
2022-12-18T21:23:58.064Z,-0.80
2022-12-18T21:26:59.729Z,-0.68
2022-12-18T21:30:01.743Z,-0.57
2022-12-18T21:33:03.661Z,-0.56
2022-12-18T21:36:06.602Z,-0.57
2022-12-18T21:39:08.561Z,-0.55
2022-12-18T21:42:31.706Z,-0.52
2022-12-18T21:45:33.346Z,-0.77
2022-12-18T21:48:38.329Z,-0.72
2022-12-18T21:51:40.289Z,-0.90
2022-12-18T21:54:41.979Z,-1.09
2022-12-18T21:57:43.617Z,-1.12
2022-12-18T22:00:48.671Z,-1.20
2022-12-18T22:03:50.536Z,-1.12
2022-12-18T22:06:52.836Z,-1.06
2022-12-18T22:09:54.578Z,-1.15
2022-12-18T22:12:56.227Z,-1.22
2022-12-18T22:15:57.932Z,-1.18
2022-12-18T22:18:59.992Z,-1.19
2022-12-18T22:22:01.929Z,-1.23
2022-12-18T22:25:03.962Z,-1.26
2022-12-18T22:28:24.303Z,-1.35
2022-12-18T22:31:25.980Z,-1.39
2022-12-18T22:34:27.926Z,-1.35
2022-12-18T22:37:29.560Z,-1.42
2022-12-18T22:40:31.250Z,-1.46
2022-12-18T22:43:33.409Z,-1.59
2022-12-18T22:46:38.409Z,-1.59
2022-12-18T22:49:40.045Z,-1.57
2022-12-18T22:52:41.734Z,-1.55
2022-12-18T22:55:43.410Z,-1.54
2022-12-18T22:58:47.940Z,-1.61
2022-12-18T23:01:51.555Z,-1.52
2022-12-18T23:05:00.095Z,-1.57
2022-12-18T23:08:01.780Z,-1.51
2022-12-18T23:11:04.538Z,-1.51
2022-12-18T23:14:06.238Z,-1.65
2022-12-18T23:17:07.910Z,-1.68
2022-12-18T23:20:10.154Z,-1.69
2022-12-18T23:23:11.758Z,-1.74
2022-12-18T23:26:21.113Z,-1.76
2022-12-18T23:29:22.756Z,-1.84
2022-12-18T23:32:24.350Z,-1.91
2022-12-18T23:35:26.127Z,-1.92
2022-12-18T23:38:28.705Z,-1.93
2022-12-18T23:41:31.730Z,-1.96
2022-12-18T23:44:33.974Z,-1.78
2022-12-18T23:47:36.156Z,-1.78
2022-12-18T23:50:38.117Z,-1.85
2022-12-18T23:53:40.310Z,-1.79
2022-12-18T23:56:42.379Z,-1.78
2022-12-18T23:59:44.113Z,-1.78
